sensor_id;sensor_type;location;lat;lon;timestamp;P1;durP1;ratioP1;P2;durP2;ratioP2
19923;SDS011;10124;53.068;18.224;2022-09-09T00:06:33;12.37;;;6.87;;
19923;SDS011;10124;53.068;18.224;2022-09-09T00:17:08;10.50;;;6.00;;
19923;SDS011;10124;53.068;18.224;2022-09-09T00:19:52;16.43;;;6.60;;
19923;SDS011;10124;53.068;18.224;2022-09-09T00:22:51;9.80;;;6.23;;
19923;SDS011;10124;53.068;18.224;2022-09-09T00:31:39;16.27;;;7.80;;
19923;SDS011;10124;53.068;18.224;2022-09-09T00:34:09;16.20;;;8.50;;
19923;SDS011;10124;53.068;18.224;2022-09-09T00:36:40;10.73;;;6.63;;
19923;SDS011;10124;53.068;18.224;2022-09-09T00:39:10;10.73;;;7.00;;
19923;SDS011;10124;53.068;18.224;2022-09-09T00:44:50;12.33;;;6.47;;
19923;SDS011;10124;53.068;18.224;2022-09-09T00:53:18;15.27;;;8.13;;
19923;SDS011;10124;53.068;18.224;2022-09-09T00:58:23;10.50;;;7.47;;
19923;SDS011;10124;53.068;18.224;2022-09-09T01:01:11;13.40;;;6.70;;
19923;SDS011;10124;53.068;18.224;2022-09-09T01:03:47;20.63;;;8.50;;
19923;SDS011;10124;53.068;18.224;2022-09-09T01:09:07;9.73;;;6.90;;
19923;SDS011;10124;53.068;18.224;2022-09-09T01:14:48;13.07;;;7.17;;
19923;SDS011;10124;53.068;18.224;2022-09-09T01:17:26;11.10;;;6.87;;
19923;SDS011;10124;53.068;18.224;2022-09-09T01:20:09;13.03;;;7.33;;
19923;SDS011;10124;53.068;18.224;2022-09-09T01:28:52;10.40;;;7.07;;
19923;SDS011;10124;53.068;18.224;2022-09-09T01:31:38;16.13;;;8.27;;
19923;SDS011;10124;53.068;18.224;2022-09-09T01:34:11;12.73;;;6.70;;
19923;SDS011;10124;53.068;18.224;2022-09-09T01:37:04;15.00;;;7.60;;
19923;SDS011;10124;53.068;18.224;2022-09-09T01:39:35;13.90;;;7.57;;
19923;SDS011;10124;53.068;18.224;2022-09-09T01:42:09;10.20;;;7.60;;
19923;SDS011;10124;53.068;18.224;2022-09-09T01:44:39;11.53;;;7.10;;
19923;SDS011;10124;53.068;18.224;2022-09-09T01:47:07;15.57;;;7.40;;
19923;SDS011;10124;53.068;18.224;2022-09-09T01:49:51;12.53;;;7.70;;
19923;SDS011;10124;53.068;18.224;2022-09-09T01:52:23;10.73;;;6.80;;
19923;SDS011;10124;53.068;18.224;2022-09-09T01:54:51;13.73;;;7.00;;
19923;SDS011;10124;53.068;18.224;2022-09-09T01:57:25;12.30;;;6.67;;
19923;SDS011;10124;53.068;18.224;2022-09-09T02:00:16;8.10;;;6.67;;
19923;SDS011;10124;53.068;18.224;2022-09-09T02:05:40;11.87;;;6.77;;
19923;SDS011;10124;53.068;18.224;2022-09-09T02:08:21;9.23;;;6.20;;
19923;SDS011;10124;53.068;18.224;2022-09-09T02:11:01;12.37;;;8.00;;
19923;SDS011;10124;53.068;18.224;2022-09-09T02:13:50;12.10;;;7.73;;
19923;SDS011;10124;53.068;18.224;2022-09-09T02:21:39;12.97;;;7.90;;
19923;SDS011;10124;53.068;18.224;2022-09-09T02:24:10;14.30;;;7.90;;
19923;SDS011;10124;53.068;18.224;2022-09-09T02:26:47;9.80;;;7.70;;
19923;SDS011;10124;53.068;18.224;2022-09-09T02:29:30;12.67;;;8.20;;
19923;SDS011;10124;53.068;18.224;2022-09-09T02:32:02;11.47;;;7.90;;
19923;SDS011;10124;53.068;18.224;2022-09-09T02:34:39;11.07;;;7.80;;
19923;SDS011;10124;53.068;18.224;2022-09-09T02:37:11;10.73;;;7.27;;
19923;SDS011;10124;53.068;18.224;2022-09-09T02:39:47;11.73;;;7.40;;
19923;SDS011;10124;53.068;18.224;2022-09-09T02:42:18;14.50;;;6.97;;
19923;SDS011;10124;53.068;18.224;2022-09-09T02:44:47;12.47;;;8.13;;
19923;SDS011;10124;53.068;18.224;2022-09-09T02:52:21;10.63;;;6.80;;
19923;SDS011;10124;53.068;18.224;2022-09-09T02:55:04;11.03;;;7.37;;
19923;SDS011;10124;53.068;18.224;2022-09-09T02:57:39;9.77;;;6.87;;
19923;SDS011;10124;53.068;18.224;2022-09-09T03:00:08;12.83;;;7.90;;
19923;SDS011;10124;53.068;18.224;2022-09-09T03:02:38;9.27;;;6.70;;
19923;SDS011;10124;53.068;18.224;2022-09-09T03:05:07;9.83;;;7.57;;
19923;SDS011;10124;53.068;18.224;2022-09-09T03:07:35;11.80;;;7.80;;
19923;SDS011;10124;53.068;18.224;2022-09-09T03:10:03;8.57;;;7.03;;
19923;SDS011;10124;53.068;18.224;2022-09-09T03:12:32;10.40;;;7.33;;
19923;SDS011;10124;53.068;18.224;2022-09-09T03:15:00;10.97;;;7.70;;
19923;SDS011;10124;53.068;18.224;2022-09-09T03:17:28;11.50;;;8.43;;
19923;SDS011;10124;53.068;18.224;2022-09-09T03:19:57;18.23;;;9.30;;
19923;SDS011;10124;53.068;18.224;2022-09-09T03:22:25;14.63;;;7.90;;
19923;SDS011;10124;53.068;18.224;2022-09-09T03:24:54;12.13;;;7.97;;
19923;SDS011;10124;53.068;18.224;2022-09-09T03:27:23;10.67;;;8.37;;
19923;SDS011;10124;53.068;18.224;2022-09-09T03:29:51;12.47;;;8.57;;
19923;SDS011;10124;53.068;18.224;2022-09-09T03:32:22;16.30;;;8.90;;
19923;SDS011;10124;53.068;18.224;2022-09-09T03:34:54;12.43;;;8.30;;
19923;SDS011;10124;53.068;18.224;2022-09-09T03:37:22;13.37;;;8.30;;
19923;SDS011;10124;53.068;18.224;2022-09-09T03:39:50;9.70;;;7.77;;
19923;SDS011;10124;53.068;18.224;2022-09-09T03:42:21;10.47;;;7.47;;
19923;SDS011;10124;53.068;18.224;2022-09-09T03:44:52;14.87;;;7.97;;
19923;SDS011;10124;53.068;18.224;2022-09-09T03:47:23;12.53;;;7.70;;
19923;SDS011;10124;53.068;18.224;2022-09-09T03:49:55;11.67;;;7.93;;
19923;SDS011;10124;53.068;18.224;2022-09-09T03:52:23;10.03;;;7.47;;
19923;SDS011;10124;53.068;18.224;2022-09-09T03:54:53;11.93;;;7.60;;
19923;SDS011;10124;53.068;18.224;2022-09-09T03:57:22;11.77;;;8.20;;
19923;SDS011;10124;53.068;18.224;2022-09-09T03:59:50;13.20;;;8.47;;
19923;SDS011;10124;53.068;18.224;2022-09-09T04:02:18;12.73;;;9.37;;
19923;SDS011;10124;53.068;18.224;2022-09-09T04:04:46;13.47;;;8.90;;
19923;SDS011;10124;53.068;18.224;2022-09-09T04:07:14;11.37;;;8.73;;
19923;SDS011;10124;53.068;18.224;2022-09-09T04:09:43;12.30;;;9.30;;
19923;SDS011;10124;53.068;18.224;2022-09-09T04:12:12;14.00;;;11.23;;
19923;SDS011;10124;53.068;18.224;2022-09-09T04:14:40;17.40;;;10.97;;
19923;SDS011;10124;53.068;18.224;2022-09-09T04:17:08;13.07;;;9.93;;
19923;SDS011;10124;53.068;18.224;2022-09-09T04:19:36;17.03;;;10.83;;
19923;SDS011;10124;53.068;18.224;2022-09-09T04:22:04;16.03;;;11.00;;
19923;SDS011;10124;53.068;18.224;2022-09-09T04:24:32;17.20;;;11.67;;
19923;SDS011;10124;53.068;18.224;2022-09-09T04:27:00;15.67;;;11.67;;
19923;SDS011;10124;53.068;18.224;2022-09-09T04:29:30;14.23;;;11.67;;
19923;SDS011;10124;53.068;18.224;2022-09-09T04:32:01;19.80;;;12.53;;
19923;SDS011;10124;53.068;18.224;2022-09-09T04:34:29;17.23;;;13.00;;
19923;SDS011;10124;53.068;18.224;2022-09-09T04:36:58;17.50;;;11.67;;
19923;SDS011;10124;53.068;18.224;2022-09-09T04:39:28;17.60;;;13.07;;
19923;SDS011;10124;53.068;18.224;2022-09-09T04:41:58;19.20;;;13.77;;
19923;SDS011;10124;53.068;18.224;2022-09-09T04:44:26;17.37;;;13.53;;
19923;SDS011;10124;53.068;18.224;2022-09-09T04:46:54;19.20;;;13.10;;
19923;SDS011;10124;53.068;18.224;2022-09-09T04:49:21;17.93;;;13.63;;
19923;SDS011;10124;53.068;18.224;2022-09-09T04:51:49;15.10;;;11.80;;
19923;SDS011;10124;53.068;18.224;2022-09-09T04:54:17;17.27;;;13.27;;
19923;SDS011;10124;53.068;18.224;2022-09-09T04:56:45;17.33;;;13.77;;
19923;SDS011;10124;53.068;18.224;2022-09-09T04:59:13;17.83;;;14.63;;
19923;SDS011;10124;53.068;18.224;2022-09-09T05:01:45;19.50;;;13.30;;
19923;SDS011;10124;53.068;18.224;2022-09-09T05:04:13;18.63;;;13.67;;
19923;SDS011;10124;53.068;18.224;2022-09-09T05:06:44;16.67;;;14.00;;
19923;SDS011;10124;53.068;18.224;2022-09-09T05:09:12;21.37;;;14.17;;
19923;SDS011;10124;53.068;18.224;2022-09-09T05:11:40;22.87;;;14.73;;
19923;SDS011;10124;53.068;18.224;2022-09-09T05:14:25;19.63;;;14.80;;
19923;SDS011;10124;53.068;18.224;2022-09-09T05:16:54;22.70;;;15.90;;
19923;SDS011;10124;53.068;18.224;2022-09-09T05:19:23;22.77;;;16.53;;
19923;SDS011;10124;53.068;18.224;2022-09-09T05:21:52;25.73;;;15.27;;
19923;SDS011;10124;53.068;18.224;2022-09-09T05:24:28;18.03;;;14.13;;
19923;SDS011;10124;53.068;18.224;2022-09-09T05:26:58;25.30;;;16.77;;
19923;SDS011;10124;53.068;18.224;2022-09-09T05:29:29;22.90;;;17.00;;
19923;SDS011;10124;53.068;18.224;2022-09-09T05:31:56;22.70;;;16.17;;
19923;SDS011;10124;53.068;18.224;2022-09-09T05:34:24;28.23;;;16.60;;
19923;SDS011;10124;53.068;18.224;2022-09-09T05:36:53;19.97;;;16.80;;
19923;SDS011;10124;53.068;18.224;2022-09-09T05:39:22;26.63;;;16.07;;
19923;SDS011;10124;53.068;18.224;2022-09-09T05:41:50;24.80;;;15.17;;
19923;SDS011;10124;53.068;18.224;2022-09-09T05:44:18;22.97;;;14.97;;
19923;SDS011;10124;53.068;18.224;2022-09-09T05:46:46;21.70;;;15.47;;
19923;SDS011;10124;53.068;18.224;2022-09-09T05:49:15;22.13;;;15.37;;
19923;SDS011;10124;53.068;18.224;2022-09-09T05:51:44;30.57;;;16.47;;
19923;SDS011;10124;53.068;18.224;2022-09-09T05:54:14;27.83;;;15.83;;
19923;SDS011;10124;53.068;18.224;2022-09-09T05:56:46;27.20;;;15.33;;
19923;SDS011;10124;53.068;18.224;2022-09-09T05:59:19;30.27;;;15.43;;
19923;SDS011;10124;53.068;18.224;2022-09-09T06:01:49;27.20;;;17.27;;
19923;SDS011;10124;53.068;18.224;2022-09-09T06:04:23;28.50;;;16.83;;
19923;SDS011;10124;53.068;18.224;2022-09-09T06:06:52;29.43;;;16.17;;
19923;SDS011;10124;53.068;18.224;2022-09-09T06:09:21;30.53;;;16.17;;
19923;SDS011;10124;53.068;18.224;2022-09-09T06:11:50;31.70;;;17.40;;
19923;SDS011;10124;53.068;18.224;2022-09-09T06:14:20;24.50;;;16.03;;
19923;SDS011;10124;53.068;18.224;2022-09-09T06:16:51;27.10;;;16.50;;
19923;SDS011;10124;53.068;18.224;2022-09-09T06:19:22;27.80;;;16.47;;
19923;SDS011;10124;53.068;18.224;2022-09-09T06:21:56;23.57;;;15.60;;
19923;SDS011;10124;53.068;18.224;2022-09-09T06:24:26;27.43;;;16.73;;
19923;SDS011;10124;53.068;18.224;2022-09-09T06:26:53;27.53;;;16.47;;
19923;SDS011;10124;53.068;18.224;2022-09-09T06:29:26;32.10;;;15.67;;
19923;SDS011;10124;53.068;18.224;2022-09-09T06:31:53;31.67;;;16.13;;
19923;SDS011;10124;53.068;18.224;2022-09-09T06:34:23;32.53;;;16.90;;
19923;SDS011;10124;53.068;18.224;2022-09-09T06:36:56;31.70;;;15.80;;
19923;SDS011;10124;53.068;18.224;2022-09-09T06:39:31;27.93;;;17.23;;
19923;SDS011;10124;53.068;18.224;2022-09-09T06:41:58;29.40;;;16.80;;
19923;SDS011;10124;53.068;18.224;2022-09-09T06:44:45;29.77;;;16.80;;
19923;SDS011;10124;53.068;18.224;2022-09-09T06:47:21;31.43;;;16.90;;
19923;SDS011;10124;53.068;18.224;2022-09-09T06:49:50;33.07;;;17.23;;
19923;SDS011;10124;53.068;18.224;2022-09-09T06:52:18;32.83;;;17.43;;
19923;SDS011;10124;53.068;18.224;2022-09-09T06:54:46;28.77;;;16.17;;
19923;SDS011;10124;53.068;18.224;2022-09-09T06:57:15;36.37;;;17.70;;
19923;SDS011;10124;53.068;18.224;2022-09-09T07:00:08;34.37;;;18.10;;
19923;SDS011;10124;53.068;18.224;2022-09-09T07:02:37;40.03;;;18.90;;
19923;SDS011;10124;53.068;18.224;2022-09-09T07:05:08;32.07;;;15.87;;
19923;SDS011;10124;53.068;18.224;2022-09-09T07:07:36;40.77;;;18.23;;
19923;SDS011;10124;53.068;18.224;2022-09-09T07:10:05;38.83;;;18.97;;
19923;SDS011;10124;53.068;18.224;2022-09-09T07:12:34;33.22;;;17.83;;
19923;SDS011;10124;53.068;18.224;2022-09-09T07:15:02;36.90;;;17.17;;
19923;SDS011;10124;53.068;18.224;2022-09-09T07:17:30;34.10;;;17.30;;
19923;SDS011;10124;53.068;18.224;2022-09-09T07:20:00;37.83;;;17.90;;
19923;SDS011;10124;53.068;18.224;2022-09-09T07:22:30;36.10;;;16.63;;
19923;SDS011;10124;53.068;18.224;2022-09-09T07:24:58;40.80;;;17.80;;
19923;SDS011;10124;53.068;18.224;2022-09-09T07:27:25;42.47;;;19.27;;
19923;SDS011;10124;53.068;18.224;2022-09-09T07:29:53;38.17;;;19.10;;
19923;SDS011;10124;53.068;18.224;2022-09-09T07:32:21;37.47;;;18.00;;
19923;SDS011;10124;53.068;18.224;2022-09-09T07:34:48;28.88;;;17.02;;
19923;SDS011;10124;53.068;18.224;2022-09-09T07:37:17;45.07;;;18.77;;
19923;SDS011;10124;53.068;18.224;2022-09-09T07:39:47;39.83;;;18.13;;
19923;SDS011;10124;53.068;18.224;2022-09-09T07:42:17;43.88;;;19.75;;
19923;SDS011;10124;53.068;18.224;2022-09-09T07:44:45;30.35;;;18.63;;
19923;SDS011;10124;53.068;18.224;2022-09-09T07:47:15;41.90;;;20.05;;
19923;SDS011;10124;53.068;18.224;2022-09-09T07:49:48;40.45;;;19.33;;
19923;SDS011;10124;53.068;18.224;2022-09-09T07:52:22;38.50;;;19.55;;
19923;SDS011;10124;53.068;18.224;2022-09-09T07:54:54;39.20;;;19.30;;
19923;SDS011;10124;53.068;18.224;2022-09-09T07:57:23;35.58;;;18.33;;
19923;SDS011;10124;53.068;18.224;2022-09-09T07:59:52;38.42;;;19.08;;
19923;SDS011;10124;53.068;18.224;2022-09-09T08:02:20;35.85;;;19.23;;
19923;SDS011;10124;53.068;18.224;2022-09-09T08:04:49;39.50;;;19.38;;
19923;SDS011;10124;53.068;18.224;2022-09-09T08:07:19;40.17;;;20.83;;
19923;SDS011;10124;53.068;18.224;2022-09-09T08:09:52;36.22;;;19.63;;
19923;SDS011;10124;53.068;18.224;2022-09-09T08:12:27;38.28;;;19.95;;
19923;SDS011;10124;53.068;18.224;2022-09-09T08:14:56;42.65;;;20.08;;
19923;SDS011;10124;53.068;18.224;2022-09-09T08:17:29;41.05;;;19.45;;
19923;SDS011;10124;53.068;18.224;2022-09-09T08:19:59;43.90;;;21.63;;
19923;SDS011;10124;53.068;18.224;2022-09-09T08:22:34;44.50;;;21.58;;
19923;SDS011;10124;53.068;18.224;2022-09-09T08:25:06;36.10;;;18.08;;
19923;SDS011;10124;53.068;18.224;2022-09-09T08:27:36;40.10;;;20.17;;
19923;SDS011;10124;53.068;18.224;2022-09-09T08:30:05;42.60;;;22.60;;
19923;SDS011;10124;53.068;18.224;2022-09-09T08:32:35;42.85;;;20.33;;
19923;SDS011;10124;53.068;18.224;2022-09-09T08:35:06;39.33;;;19.55;;
19923;SDS011;10124;53.068;18.224;2022-09-09T08:37:34;41.20;;;20.40;;
19923;SDS011;10124;53.068;18.224;2022-09-09T08:40:04;42.67;;;21.67;;
19923;SDS011;10124;53.068;18.224;2022-09-09T08:42:44;40.72;;;22.25;;
19923;SDS011;10124;53.068;18.224;2022-09-09T08:45:29;48.88;;;21.92;;
19923;SDS011;10124;53.068;18.224;2022-09-09T08:48:08;41.30;;;22.95;;
19923;SDS011;10124;53.068;18.224;2022-09-09T08:50:44;39.78;;;19.50;;
19923;SDS011;10124;53.068;18.224;2022-09-09T08:53:24;38.13;;;20.90;;
19923;SDS011;10124;53.068;18.224;2022-09-09T08:56:00;45.63;;;23.45;;
19923;SDS011;10124;53.068;18.224;2022-09-09T08:58:47;40.15;;;21.10;;
19923;SDS011;10124;53.068;18.224;2022-09-09T09:09:53;45.35;;;22.52;;
19923;SDS011;10124;53.068;18.224;2022-09-09T09:12:29;43.90;;;22.88;;
19923;SDS011;10124;53.068;18.224;2022-09-09T09:15:00;44.70;;;21.63;;
19923;SDS011;10124;53.068;18.224;2022-09-09T09:17:35;42.70;;;23.25;;
19923;SDS011;10124;53.068;18.224;2022-09-09T09:20:11;41.65;;;22.67;;
19923;SDS011;10124;53.068;18.224;2022-09-09T09:22:49;44.67;;;23.77;;
19923;SDS011;10124;53.068;18.224;2022-09-09T09:27:58;43.72;;;24.50;;
19923;SDS011;10124;53.068;18.224;2022-09-09T09:30:42;37.28;;;22.27;;
19923;SDS011;10124;53.068;18.224;2022-09-09T09:33:51;47.03;;;22.65;;
19923;SDS011;10124;53.068;18.224;2022-09-09T09:36:59;42.13;;;22.60;;
19923;SDS011;10124;53.068;18.224;2022-09-09T09:39:24;42.65;;;24.52;;
19923;SDS011;10124;53.068;18.224;2022-09-09T09:42:16;50.67;;;26.58;;
19923;SDS011;10124;53.068;18.224;2022-09-09T09:44:49;51.10;;;25.27;;
19923;SDS011;10124;53.068;18.224;2022-09-09T09:47:21;48.78;;;24.30;;
19923;SDS011;10124;53.068;18.224;2022-09-09T09:50:00;46.03;;;25.05;;
19923;SDS011;10124;53.068;18.224;2022-09-09T09:52:34;55.58;;;25.70;;
19923;SDS011;10124;53.068;18.224;2022-09-09T09:55:05;47.95;;;26.63;;
19923;SDS011;10124;53.068;18.224;2022-09-09T09:57:42;44.30;;;24.77;;
19923;SDS011;10124;53.068;18.224;2022-09-09T10:00:16;51.42;;;24.88;;
19923;SDS011;10124;53.068;18.224;2022-09-09T10:02:52;44.92;;;24.52;;
19923;SDS011;10124;53.068;18.224;2022-09-09T10:05:25;48.05;;;24.70;;
19923;SDS011;10124;53.068;18.224;2022-09-09T10:08:13;44.55;;;24.40;;
19923;SDS011;10124;53.068;18.224;2022-09-09T10:19:26;40.33;;;23.48;;
19923;SDS011;10124;53.068;18.224;2022-09-09T10:43:42;38.35;;;19.85;;
19923;SDS011;10124;53.068;18.224;2022-09-09T10:46:18;37.72;;;21.30;;
19923;SDS011;10124;53.068;18.224;2022-09-09T10:51:43;41.03;;;21.27;;
19923;SDS011;10124;53.068;18.224;2022-09-09T10:54:35;46.35;;;22.70;;
19923;SDS011;10124;53.068;18.224;2022-09-09T10:59:50;36.47;;;21.27;;
19923;SDS011;10124;53.068;18.224;2022-09-09T11:02:27;32.85;;;19.67;;
19923;SDS011;10124;53.068;18.224;2022-09-09T11:04:59;40.70;;;21.65;;
19923;SDS011;10124;53.068;18.224;2022-09-09T11:07:39;34.22;;;19.85;;
19923;SDS011;10124;53.068;18.224;2022-09-09T11:10:18;34.90;;;20.30;;
19923;SDS011;10124;53.068;18.224;2022-09-09T11:12:46;47.90;;;23.85;;
19923;SDS011;10124;53.068;18.224;2022-09-09T11:18:19;31.00;;;18.48;;
19923;SDS011;10124;53.068;18.224;2022-09-09T11:20:53;33.63;;;19.85;;
19923;SDS011;10124;53.068;18.224;2022-09-09T11:23:38;30.02;;;18.80;;
19923;SDS011;10124;53.068;18.224;2022-09-09T11:26:11;27.55;;;17.02;;
19923;SDS011;10124;53.068;18.224;2022-09-09T11:37:37;27.30;;;16.50;;
19923;SDS011;10124;53.068;18.224;2022-09-09T11:40:19;24.88;;;15.55;;
19923;SDS011;10124;53.068;18.224;2022-09-09T11:42:59;33.22;;;18.77;;
19923;SDS011;10124;53.068;18.224;2022-09-09T11:45:52;31.58;;;16.40;;
19923;SDS011;10124;53.068;18.224;2022-09-09T11:48:34;29.30;;;16.25;;
19923;SDS011;10124;53.068;18.224;2022-09-09T11:51:11;26.48;;;14.98;;
19923;SDS011;10124;53.068;18.224;2022-09-09T11:53:50;26.80;;;16.40;;
19923;SDS011;10124;53.068;18.224;2022-09-09T11:56:26;43.85;;;20.23;;
19923;SDS011;10124;53.068;18.224;2022-09-09T11:58:58;41.13;;;22.50;;
19923;SDS011;10124;53.068;18.224;2022-09-09T12:01:34;27.20;;;16.52;;
19923;SDS011;10124;53.068;18.224;2022-09-09T12:04:17;28.58;;;16.67;;
19923;SDS011;10124;53.068;18.224;2022-09-09T12:17:19;26.10;;;15.02;;
19923;SDS011;10124;53.068;18.224;2022-09-09T12:19:59;24.52;;;13.23;;
19923;SDS011;10124;53.068;18.224;2022-09-09T12:22:53;21.13;;;12.43;;
19923;SDS011;10124;53.068;18.224;2022-09-09T12:25:32;26.42;;;14.77;;
19923;SDS011;10124;53.068;18.224;2022-09-09T12:28:15;18.02;;;11.38;;
19923;SDS011;10124;53.068;18.224;2022-09-09T12:33:45;25.58;;;14.70;;
19923;SDS011;10124;53.068;18.224;2022-09-09T12:36:19;20.10;;;12.25;;
19923;SDS011;10124;53.068;18.224;2022-09-09T12:38:55;20.23;;;13.80;;
19923;SDS011;10124;53.068;18.224;2022-09-09T12:41:27;26.98;;;14.48;;
19923;SDS011;10124;53.068;18.224;2022-09-09T12:44:05;24.50;;;15.52;;
19923;SDS011;10124;53.068;18.224;2022-09-09T12:46:36;28.63;;;17.45;;
19923;SDS011;10124;53.068;18.224;2022-09-09T12:52:12;23.70;;;15.85;;
19923;SDS011;10124;53.068;18.224;2022-09-09T12:54:57;25.08;;;14.68;;
19923;SDS011;10124;53.068;18.224;2022-09-09T12:57:29;22.77;;;14.18;;
19923;SDS011;10124;53.068;18.224;2022-09-09T13:00:06;19.70;;;12.07;;
19923;SDS011;10124;53.068;18.224;2022-09-09T13:02:45;18.95;;;12.27;;
19923;SDS011;10124;53.068;18.224;2022-09-09T13:05:27;17.38;;;11.75;;
19923;SDS011;10124;53.068;18.224;2022-09-09T13:08:04;17.65;;;11.00;;
19923;SDS011;10124;53.068;18.224;2022-09-09T13:10:37;17.90;;;11.80;;
19923;SDS011;10124;53.068;18.224;2022-09-09T13:13:26;18.05;;;11.15;;
19923;SDS011;10124;53.068;18.224;2022-09-09T13:15:57;18.83;;;10.88;;
19923;SDS011;10124;53.068;18.224;2022-09-09T13:18:29;17.98;;;10.88;;
19923;SDS011;10124;53.068;18.224;2022-09-09T13:21:00;14.90;;;9.77;;
19923;SDS011;10124;53.068;18.224;2022-09-09T13:23:29;14.00;;;10.45;;
19923;SDS011;10124;53.068;18.224;2022-09-09T13:26:00;15.25;;;9.93;;
19923;SDS011;10124;53.068;18.224;2022-09-09T13:28:30;16.92;;;12.10;;
19923;SDS011;10124;53.068;18.224;2022-09-09T13:31:01;14.45;;;9.68;;
19923;SDS011;10124;53.068;18.224;2022-09-09T13:33:46;12.77;;;9.77;;
19923;SDS011;10124;53.068;18.224;2022-09-09T13:36:13;21.70;;;12.20;;
19923;SDS011;10124;53.068;18.224;2022-09-09T13:38:54;20.42;;;14.73;;
19923;SDS011;10124;53.068;18.224;2022-09-09T13:41:25;13.93;;;9.57;;
19923;SDS011;10124;53.068;18.224;2022-09-09T13:44:00;12.50;;;9.20;;
19923;SDS011;10124;53.068;18.224;2022-09-09T13:46:37;16.30;;;10.27;;
19923;SDS011;10124;53.068;18.224;2022-09-09T13:51:45;18.33;;;9.75;;
19923;SDS011;10124;53.068;18.224;2022-09-09T13:54:18;17.15;;;9.32;;
19923;SDS011;10124;53.068;18.224;2022-09-09T13:56:47;14.15;;;8.35;;
19923;SDS011;10124;53.068;18.224;2022-09-09T13:59:18;19.80;;;11.85;;
19923;SDS011;10124;53.068;18.224;2022-09-09T14:01:47;17.63;;;9.00;;
19923;SDS011;10124;53.068;18.224;2022-09-09T14:04:16;18.33;;;8.75;;
19923;SDS011;10124;53.068;18.224;2022-09-09T14:06:44;18.48;;;10.75;;
19923;SDS011;10124;53.068;18.224;2022-09-09T14:09:12;16.30;;;11.60;;
19923;SDS011;10124;53.068;18.224;2022-09-09T14:11:43;14.50;;;9.38;;
19923;SDS011;10124;53.068;18.224;2022-09-09T14:14:12;19.40;;;11.25;;
19923;SDS011;10124;53.068;18.224;2022-09-09T14:16:40;13.77;;;10.80;;
19923;SDS011;10124;53.068;18.224;2022-09-09T14:19:09;18.45;;;13.05;;
19923;SDS011;10124;53.068;18.224;2022-09-09T14:21:36;24.42;;;19.95;;
19923;SDS011;10124;53.068;18.224;2022-09-09T14:24:04;19.73;;;11.75;;
19923;SDS011;10124;53.068;18.224;2022-09-09T14:26:33;19.25;;;11.65;;
19923;SDS011;10124;53.068;18.224;2022-09-09T14:29:00;25.70;;;20.50;;
19923;SDS011;10124;53.068;18.224;2022-09-09T14:31:29;23.08;;;15.45;;
19923;SDS011;10124;53.068;18.224;2022-09-09T14:33:58;20.88;;;10.57;;
19923;SDS011;10124;53.068;18.224;2022-09-09T14:36:26;18.35;;;10.73;;
19923;SDS011;10124;53.068;18.224;2022-09-09T14:38:54;22.77;;;13.85;;
19923;SDS011;10124;53.068;18.224;2022-09-09T14:41:22;16.77;;;10.55;;
19923;SDS011;10124;53.068;18.224;2022-09-09T14:43:50;18.67;;;11.25;;
19923;SDS011;10124;53.068;18.224;2022-09-09T14:46:21;16.67;;;11.98;;
19923;SDS011;10124;53.068;18.224;2022-09-09T14:48:49;19.98;;;13.05;;
19923;SDS011;10124;53.068;18.224;2022-09-09T14:51:18;22.55;;;12.15;;
19923;SDS011;10124;53.068;18.224;2022-09-09T14:53:47;18.60;;;11.23;;
19923;SDS011;10124;53.068;18.224;2022-09-09T14:56:18;15.50;;;10.25;;
19923;SDS011;10124;53.068;18.224;2022-09-09T14:58:48;16.73;;;10.15;;
19923;SDS011;10124;53.068;18.224;2022-09-09T15:01:17;16.50;;;10.43;;
19923;SDS011;10124;53.068;18.224;2022-09-09T15:04:04;21.83;;;11.20;;
19923;SDS011;10124;53.068;18.224;2022-09-09T15:06:33;19.20;;;11.80;;
19923;SDS011;10124;53.068;18.224;2022-09-09T15:09:04;20.52;;;12.80;;
19923;SDS011;10124;53.068;18.224;2022-09-09T15:11:36;25.67;;;12.13;;
19923;SDS011;10124;53.068;18.224;2022-09-09T15:14:05;25.83;;;15.57;;
19923;SDS011;10124;53.068;18.224;2022-09-09T15:16:36;22.48;;;15.25;;
19923;SDS011;10124;53.068;18.224;2022-09-09T15:19:05;27.75;;;14.00;;
19923;SDS011;10124;53.068;18.224;2022-09-09T15:21:34;26.88;;;14.98;;
19923;SDS011;10124;53.068;18.224;2022-09-09T15:24:03;39.08;;;22.42;;
19923;SDS011;10124;53.068;18.224;2022-09-09T15:26:34;22.75;;;14.80;;
19923;SDS011;10124;53.068;18.224;2022-09-09T15:29:05;22.80;;;14.25;;
19923;SDS011;10124;53.068;18.224;2022-09-09T15:31:35;30.42;;;18.15;;
19923;SDS011;10124;53.068;18.224;2022-09-09T15:34:04;23.17;;;14.90;;
19923;SDS011;10124;53.068;18.224;2022-09-09T15:36:37;21.70;;;13.80;;
19923;SDS011;10124;53.068;18.224;2022-09-09T15:39:10;24.38;;;14.13;;
19923;SDS011;10124;53.068;18.224;2022-09-09T15:41:46;21.08;;;14.27;;
19923;SDS011;10124;53.068;18.224;2022-09-09T15:44:15;21.20;;;13.30;;
19923;SDS011;10124;53.068;18.224;2022-09-09T15:46:44;27.88;;;15.70;;
19923;SDS011;10124;53.068;18.224;2022-09-09T15:49:17;18.15;;;12.82;;
19923;SDS011;10124;53.068;18.224;2022-09-09T15:51:50;18.67;;;11.85;;
19923;SDS011;10124;53.068;18.224;2022-09-09T15:54:21;21.15;;;12.60;;
19923;SDS011;10124;53.068;18.224;2022-09-09T15:56:57;22.52;;;13.80;;
19923;SDS011;10124;53.068;18.224;2022-09-09T15:59:28;24.80;;;13.68;;
19923;SDS011;10124;53.068;18.224;2022-09-09T16:01:58;23.77;;;13.77;;
19923;SDS011;10124;53.068;18.224;2022-09-09T16:04:27;21.92;;;13.27;;
19923;SDS011;10124;53.068;18.224;2022-09-09T16:07:00;22.35;;;13.93;;
19923;SDS011;10124;53.068;18.224;2022-09-09T16:09:30;23.20;;;14.75;;
19923;SDS011;10124;53.068;18.224;2022-09-09T16:11:59;29.75;;;14.93;;
19923;SDS011;10124;53.068;18.224;2022-09-09T16:14:28;25.38;;;14.35;;
19923;SDS011;10124;53.068;18.224;2022-09-09T16:17:01;20.92;;;13.45;;
19923;SDS011;10124;53.068;18.224;2022-09-09T16:19:30;30.83;;;14.32;;
19923;SDS011;10124;53.068;18.224;2022-09-09T16:21:58;22.67;;;13.65;;
19923;SDS011;10124;53.068;18.224;2022-09-09T16:24:26;18.33;;;12.25;;
19923;SDS011;10124;53.068;18.224;2022-09-09T16:26:55;24.05;;;14.18;;
19923;SDS011;10124;53.068;18.224;2022-09-09T16:29:23;25.08;;;15.95;;
19923;SDS011;10124;53.068;18.224;2022-09-09T16:31:54;20.85;;;13.38;;
19923;SDS011;10124;53.068;18.224;2022-09-09T16:34:28;20.70;;;13.75;;
19923;SDS011;10124;53.068;18.224;2022-09-09T16:36:56;31.60;;;14.43;;
19923;SDS011;10124;53.068;18.224;2022-09-09T16:39:23;28.42;;;14.65;;
19923;SDS011;10124;53.068;18.224;2022-09-09T16:41:51;28.23;;;15.48;;
19923;SDS011;10124;53.068;18.224;2022-09-09T16:44:19;27.65;;;17.30;;
19923;SDS011;10124;53.068;18.224;2022-09-09T16:46:47;27.30;;;17.42;;
19923;SDS011;10124;53.068;18.224;2022-09-09T16:49:15;24.45;;;17.45;;
19923;SDS011;10124;53.068;18.224;2022-09-09T16:51:47;31.67;;;19.73;;
19923;SDS011;10124;53.068;18.224;2022-09-09T16:54:16;29.88;;;17.63;;
19923;SDS011;10124;53.068;18.224;2022-09-09T16:56:46;32.72;;;20.08;;
19923;SDS011;10124;53.068;18.224;2022-09-09T16:59:16;24.48;;;17.48;;